Time;durP1;ratioP1;P1;durP2;ratioP2;P2;SDS_P1;SDS_P2;PMS_P1;PMS_P2;Temp;Humidity;BMP_temperature;BMP_pressure;BME280_temperature;BME280_humidity;BME280_pressure;Samples;Min_cycle;Max_cycle;Signal;HPM_P1;HPM_P2
2021/12/04 00:02:04;;;;;;;25.80;11.20;;;;;;;-2.19;71.55;97913.52;422393;1308;99541;-40
2021/12/04 00:12:12;;;;;;;16.40;8.80;;;;;;;-1.93;71.90;97898.34;422472;1308;109079;-40
2021/12/04 00:22:19;;;;;;;30.20;12.90;;;;;;;-1.62;72.28;97875.81;422558;1308;99306;-41
2021/12/04 00:52:58;;;;;;;26.70;11.20;;;;;;;-1.16;71.62;97858.85;422182;1307;99407;-40
2021/12/04 01:03:05;;;;;;;25.10;10.70;;;;;;;-1.21;71.46;97859.73;422416;1308;112524;-40
2021/12/04 01:13:12;;;;;;;14.70;8.00;;;;;;;-1.18;71.64;97843.84;422268;1307;108891;-40
2021/12/04 01:23:19;;;;;;;15.50;7.70;;;;;;;-1.08;71.39;97827.64;418590;1307;5381305;-40
2021/12/04 01:33:25;;;;;;;20.40;8.20;;;;;;;-1.07;71.52;97821.99;422253;1308;108964;-40
2021/12/04 01:43:32;;;;;;;17.30;8.50;;;;;;;-1.10;71.53;97813.40;422333;1309;99405;-40
2021/12/04 01:53:39;;;;;;;14.80;8.60;;;;;;;-1.17;71.41;97804.63;422391;1306;112781;-41
2021/12/04 02:03:46;;;;;;;16.40;7.80;;;;;;;-1.26;71.29;97791.08;422233;1308;108915;-40
2021/12/04 02:13:53;;;;;;;17.30;8.10;;;;;;;-1.32;71.40;97790.30;422584;1307;99942;-40
2021/12/04 02:24:01;;;;;;;9.00;6.10;;;;;;;-1.29;71.17;97772.31;422089;1308;112528;-39
2021/12/04 02:34:08;;;;;;;12.70;6.70;;;;;;;-1.16;70.92;97766.02;423128;1297;107657;-40
2021/12/04 02:44:16;;;;;;;18.20;8.60;;;;;;;-1.11;71.28;97742.55;422481;1305;99370;-40
2021/12/04 02:54:23;;;;;;;17.10;8.50;;;;;;;-1.10;71.08;97729.27;422354;1305;108810;-40
2021/12/04 03:04:32;;;;;;;14.10;7.40;;;;;;;-1.10;70.93;97718.58;422549;1305;99410;-40
2021/12/04 03:14:40;;;;;;;13.20;8.50;;;;;;;-1.02;70.99;97703.46;422515;1305;112573;-38
2021/12/04 03:24:48;;;;;;;12.40;5.90;;;;;;;-0.94;70.68;97692.48;422781;1305;108921;-39
2021/12/04 03:45:20;;;;;;;12.80;7.30;;;;;;;-0.79;70.64;97666.33;422658;1306;109716;-40
2021/12/04 03:55:28;;;;;;;13.50;8.00;;;;;;;-0.81;70.66;97649.45;422538;1306;99382;-42
2021/12/04 04:05:35;;;;;;;13.00;7.90;;;;;;;-0.90;70.60;97638.20;422535;1305;112540;-40
2021/12/04 04:25:49;;;;;;;11.80;7.30;;;;;;;-0.92;70.66;97634.67;422330;1305;99291;-39
2021/12/04 05:27:37;;;;;;;18.00;9.00;;;;;;;-0.86;70.28;97582.23;422669;1306;99295;-40
2021/12/04 05:37:44;;;;;;;11.60;6.90;;;;;;;-0.79;70.31;97575.64;422543;1305;112451;-40
2021/12/04 05:47:57;;;;;;;17.50;7.20;;;;;;;-0.67;70.41;97571.39;422682;1306;108105;-40
2021/12/04 05:58:04;;;;;;;18.60;8.40;;;;;;;-0.61;70.36;97569.36;422659;1306;99299;-40
2021/12/04 06:08:12;;;;;;;15.10;8.50;;;;;;;-0.59;70.55;97562.71;422461;1306;112497;-39
2021/12/04 06:18:21;;;;;;;18.40;9.90;;;;;;;-0.63;70.50;97569.23;422661;1305;108889;-42
2021/12/04 06:28:29;;;;;;;22.70;8.70;;;;;;;-0.58;70.22;97571.35;422570;1306;99311;-40
2021/12/04 06:38:38;;;;;;;23.40;9.60;;;;;;;-0.51;70.24;97574.56;422845;1306;112063;-40
2021/12/04 06:48:56;;;;;;;20.70;9.80;;;;;;;-0.48;69.93;97582.76;422712;1305;109043;-40
2021/12/04 06:59:08;;;;;;;14.20;7.80;;;;;;;-0.37;69.90;97585.94;422408;1305;98035;-40
2021/12/04 07:09:16;;;;;;;22.70;10.20;;;;;;;-0.23;69.91;97578.95;422618;1306;111456;-39
2021/12/04 07:19:23;;;;;;;20.20;10.30;;;;;;;-0.21;69.80;97581.05;422442;1308;108582;-40
2021/12/04 07:29:30;;;;;;;21.20;12.10;;;;;;;-0.17;69.53;97569.66;422907;1306;99328;-41
2021/12/04 07:39:38;;;;;;;25.30;13.00;;;;;;;-0.08;69.46;97558.61;422446;1305;112411;-40
2021/12/04 07:49:45;;;;;;;22.60;12.50;;;;;;;0.05;69.23;97551.23;422698;1310;108894;-40
2021/12/04 07:59:52;;;;;;;22.00;11.20;;;;;;;0.22;69.15;97534.87;422742;1305;99349;-40
2021/12/04 08:09:59;;;;;;;26.20;12.80;;;;;;;0.39;68.70;97529.77;422687;1305;108146;-40
2021/12/04 08:20:08;;;;;;;21.20;11.70;;;;;;;0.73;68.70;97531.73;422408;1307;99595;-40
2021/12/04 08:30:18;;;;;;;22.80;12.50;;;;;;;1.34;68.24;97523.86;422655;1306;112539;-40
2021/12/04 08:40:26;;;;;;;20.50;10.40;;;;;;;1.78;67.70;97525.15;422419;1305;108930;-40
2021/12/04 08:50:36;;;;;;;23.80;11.90;;;;;;;1.67;67.17;97518.70;422842;1312;99942;-40
2021/12/04 09:00:48;;;;;;;;;;;;;;;1.56;67.02;97516.88;422442;1305;112971;-40
2021/12/04 09:10:57;;;;;;;20.00;10.50;;;;;;;1.41;66.74;97515.49;422619;1306;108962;-41
2021/12/04 09:21:05;;;;;;;41.50;17.30;;;;;;;1.43;66.74;97509.09;418580;1306;5613176;-40
2021/12/04 10:33:38;;;;;;;24.70;12.00;;;;;;;2.32;65.10;97414.38;422584;1307;112667;-41
2021/12/04 10:43:45;;;;;;;28.00;12.40;;;;;;;2.18;64.92;97409.58;422653;1310;108489;-40
2021/12/04 11:04:06;;;;;;;27.50;12.10;;;;;;;2.09;65.24;97389.98;422821;1307;112982;-41
2021/12/04 11:45:40;;;;;;;21.50;13.80;;;;;;;2.09;65.53;97338.42;422722;1310;109063;-41
2021/12/04 11:55:50;;;;;;;24.20;12.60;;;;;;;2.16;65.39;97332.56;422754;1306;99305;-41
2021/12/04 12:05:57;;;;;;;;;;;;;;;2.26;65.28;97328.33;422623;1307;112492;-40
2021/12/04 12:16:09;;;;;;;27.80;14.30;;;;;;;2.34;65.36;97330.77;422613;1310;108929;-40
2021/12/04 12:36:36;;;;;;;43.30;19.20;;;;;;;2.49;65.48;97317.25;422954;1309;99440;-41
2021/12/04 12:46:41;;;;;;;36.80;17.90;;;;;;;2.54;65.63;97312.15;422542;1306;112414;-42
2021/12/04 12:56:57;;;;;;;37.60;15.50;;;;;;;2.58;65.53;97312.01;422771;1309;108925;-41
2021/12/04 13:17:33;;;;;;;58.60;24.90;;;;;;;2.60;65.48;97314.86;422712;1309;112661;-40
2021/12/04 13:37:45;;;;;;;40.60;18.40;;;;;;;2.44;65.42;97311.06;422854;1307;99385;-41
2021/12/04 13:47:51;;;;;;;52.40;26.70;;;;;;;2.41;65.55;97298.48;422562;1306;112378;-40
2021/12/04 14:18:15;;;;;;;50.00;23.40;;;;;;;2.15;65.21;97286.23;422734;1306;112585;-40
2021/12/04 14:38:32;;;;;;;33.90;17.50;;;;;;;1.96;65.35;97300.39;422796;1306;99328;-40
2021/12/04 14:48:42;;;;;;;31.10;17.20;;;;;;;1.84;65.42;97306.73;422392;1309;112459;-40
2021/12/04 14:58:50;;;;;;;60.40;23.50;;;;;;;1.75;65.51;97305.25;422714;1305;109412;-41
2021/12/04 15:09:01;;;;;;;54.50;21.20;;;;;;;1.64;65.44;97303.71;422488;1306;99369;-40
2021/12/04 15:29:16;;;;;;;59.30;27.90;;;;;;;1.50;65.72;97299.03;422533;1305;108917;-41
2021/12/04 15:59:54;;;;;;;46.70;21.10;;;;;;;1.40;65.97;97296.73;422552;1306;112761;-40
2021/12/04 16:10:09;;;;;;;60.00;25.50;;;;;;;1.32;65.85;97293.45;422940;1306;108083;-42
2021/12/04 16:20:21;;;;;;;51.20;24.00;;;;;;;1.34;66.10;97284.27;422362;1306;99270;-41
2021/12/04 16:40:39;;;;;;;63.20;28.00;;;;;;;1.28;65.99;97284.29;422508;1306;108891;-41
2021/12/04 17:01:17;;;;;;;66.10;29.50;;;;;;;1.02;66.20;97277.99;422526;1306;111929;-40
2021/12/04 17:11:25;;;;;;;59.30;27.20;;;;;;;0.86;66.66;97281.80;422570;1306;109421;-40
2021/12/04 17:21:33;;;;;;;52.40;21.20;;;;;;;0.79;66.82;97284.65;418549;1305;5658147;-40
2021/12/04 17:31:41;;;;;;;55.10;23.80;;;;;;;0.79;67.42;97274.97;422460;1306;111327;-40
2021/12/04 17:41:49;;;;;;;55.30;25.50;;;;;;;0.84;67.69;97265.63;422941;1306;107720;-41
2021/12/04 17:51:59;;;;;;;70.20;27.60;;;;;;;0.77;67.96;97264.56;422485;1305;98881;-40
2021/12/04 18:02:03;;;;;;;58.00;24.30;;;;;;;0.68;68.33;97250.23;422686;1305;112360;-40
2021/12/04 18:12:15;;;;;;;50.20;21.80;;;;;;;0.56;68.65;97241.38;422446;1306;99186;-39
2021/12/04 18:22:22;;;;;;;43.60;19.30;;;;;;;0.52;68.98;97240.87;422389;1306;99295;-41
2021/12/04 18:32:30;;;;;;;45.80;19.50;;;;;;;0.57;69.03;97246.10;422476;1306;112599;-41
2021/12/04 18:42:37;;;;;;;67.70;29.40;;;;;;;0.61;69.49;97243.98;422760;1305;108807;-40
2021/12/04 18:52:45;;;;;;;75.90;31.50;;;;;;;0.53;69.76;97237.90;422706;1306;99350;-40
2021/12/04 19:13:07;;;;;;;87.40;36.60;;;;;;;0.46;70.05;97229.16;422586;1306;108968;-40
2021/12/04 19:23:16;;;;;;;56.30;25.90;;;;;;;0.51;70.26;97229.55;422387;1305;98784;-40
2021/12/04 19:33:38;;;;;;;52.60;20.50;;;;;;;0.66;70.42;97223.37;422668;1305;112490;-39
2021/12/04 19:54:16;;;;;;;66.30;29.20;;;;;;;0.83;70.58;97221.68;422483;1306;99296;-41
2021/12/04 20:14:38;;;;;;;89.80;37.40;;;;;;;0.73;70.41;97222.30;422566;1305;108970;-41
2021/12/04 22:19:24;;;;;;;130.10;47.30;;;;;;;0.70;70.69;97170.13;422757;1306;108919;-42
2021/12/04 23:01:11;;;;;;;59.60;23.90;;;;;;;0.79;70.28;97132.46;422614;1305;98410;-41
2021/12/04 23:11:23;;;;;;;107.30;40.50;;;;;;;0.81;70.42;97123.54;422474;1305;112573;-41
